< < Back
Terminal Aerodrome Forecast


Current Version              Previous Versions:   1  2  3  4  5  6  7  8  9  

Terminal Aerodrome Forecast

329
FTUS42 KCHS 051135
TAFCHS
TAF
KCHS 051135Z 0512/0612 VRB04KT P6SM SCT040
     FM051400 08011KT P6SM SCT050
     FM051800 13014G20KT P6SM SCT060
     FM060200 VRB04KT P6SM SCT020 BKN250=

Latest METAR

886
SAUS80 KWBC 051500 RRA
MTRCHS
METAR KCHS 051456Z 13008KT 10SM SCT040 SCT250 24/12 A3034 RMK AO2 SLP273
T02390122 53005


USA.gov is the U.S. government's official web portal to all federal, state and local government web resources and services.